METAR Data
IDs: Format: Raw Decoded Include TAF

Data at: 1143 UTC 28 Jul 2021

KDLO 281135Z AUTO 16004KT 10SM CLR 21/10 A2998 RMK AO2 T02100098
KDLO 281115Z AUTO 14004KT 10SM CLR 20/10 A2997 RMK AO2 T02020101
KDLO 281055Z AUTO 13004KT 10SM CLR 21/10 A2997 RMK AO2 T02050100
KDLO 281035Z AUTO 00000KT 10SM CLR 21/10 A2996 RMK AO2 T02110095
KDLO 281015Z AUTO 00000KT 10SM CLR 24/04 A2996 RMK AO2 T02390042
KDLO 280955Z AUTO 00000KT 10SM CLR 24/06 A2996 RMK AO2 T02350060
KDLO 280935Z AUTO 00000KT 10SM CLR 24/05 A2996 RMK AO2 T02420049
KDLO 280915Z AUTO 00000KT 10SM CLR 25/05 A2996 RMK AO2 T02460045
KDLO 280855Z AUTO 00000KT 10SM CLR 25/05 A2996 RMK AO2 T02490049
KDLO 280835Z AUTO 23003KT 10SM CLR 25/07 A2996 RMK AO2 T02460068
KDLO 280815Z AUTO 00000KT 10SM CLR 25/08 A2995 RMK AO2 T02520079
KDLO 280755Z AUTO 00000KT 10SM CLR 26/08 A2995 RMK AO2 T02550079 403760178
KDLO 280735Z AUTO 00000KT 10SM CLR 26/09 A2995 RMK AO2 T02560087
KDLO 280715Z AUTO 00000KT 10SM CLR 26/09 A2995 RMK AO2 T02570094
KDLO 280655Z AUTO 00000KT 10SM CLR 26/11 A2994 RMK AO2 T02560107
KDLO 280635Z AUTO 26003KT 10SM CLR 26/11 A2993 RMK AO2 T02640109
KDLO 280615Z AUTO 00000KT 10SM CLR 27/12 A2993 RMK AO2 T02660122
KDLO 280555Z AUTO 26004KT 10SM CLR 28/13 A2993 RMK AO2 T02750131 10376 20275
KDLO 280535Z AUTO 26003KT 10SM CLR 28/14 A2992 RMK AO2 T02840138
KDLO 280515Z AUTO 29003KT 10SM CLR 30/14 A2991 RMK AO2 T03000141
KDLO 280455Z AUTO 26004KT 10SM CLR 30/15 A2990 RMK AO2 T03010151
KDLO 280435Z AUTO 00000KT 10SM CLR 32/15 A2989 RMK AO2 T03190147
KDLO 280415Z AUTO 00000KT 10SM CLR 33/14 A2987 RMK AO2 T03300141
KDLO 280355Z AUTO 34006KT 10SM CLR 34/14 A2986 RMK AO2 T03360141
KDLO 280335Z AUTO 35007KT 10SM CLR 34/14 A2985 RMK AO2 T03410140
KDLO 280315Z AUTO 34008KT 10SM CLR 34/14 A2985 RMK AO2 T03410139
KDLO 280255Z AUTO 35007KT 10SM CLR 35/14 A2984 RMK AO2 T03490137
KDLO 280235Z AUTO 35008KT 10SM CLR 36/13 A2984 RMK AO2 T03560125
KDLO 280215Z AUTO 01008KT 10SM CLR 36/13 A2984 RMK AO2 T03590132
KDLO 280155Z AUTO 02009KT 10SM CLR 36/14 A2983 RMK AO2 T03620137
KDLO 280135Z AUTO 36011KT 10SM CLR 36/14 A2983 RMK AO2 T03640140
KDLO 280115Z AUTO 02010KT 10SM CLR 37/14 A2983 RMK AO2 T03650141
KDLO 280055Z AUTO 03010KT 10SM CLR 37/14 A2983 RMK AO2 T03710143
KDLO 280035Z AUTO 04011G16KT 10SM CLR 37/14 A2984 RMK AO2 T03700143
KDLO 280015Z AUTO 02007KT 320V050 10SM CLR 37/14 A2984 RMK AO2 T03740139
KDLO 272355Z AUTO 03008KT 10SM CLR 37/13 A2985 RMK AO2 T03700133 10372 20289
KDLO 272335Z AUTO 34005KT 10SM CLR 37/13 A2985 RMK AO2 T03680131
KDLO 272315Z AUTO 36008KT 10SM CLR 37/13 A2985 RMK AO2 T03700129
KDLO 272255Z AUTO 35006KT 10SM CLR 37/13 A2986 RMK AO2 T03650131
KDLO 272235Z AUTO 01003KT 10SM CLR 36/14 A2987 RMK AO2 T03640135
KDLO 272215Z AUTO 32003KT 10SM CLR 36/14 A2988 RMK AO2 T03620141
KDLO 272155Z AUTO 35009KT 10SM CLR 36/13 A2988 RMK AO2 T03560131
KDLO 272135Z AUTO 02006KT 10SM CLR 35/13 A2989 RMK AO2 T03490128
KDLO 272115Z AUTO 36007KT 10SM CLR 35/13 A2990 RMK AO2 T03500126
KDLO 272055Z AUTO 05003KT 10SM CLR 34/12 A2990 RMK AO2 T03430118
KDLO 272035Z AUTO 33004KT 10SM CLR 34/12 A2991 RMK AO2 T03430118
KDLO 272015Z AUTO 29003KT 10SM CLR 33/13 A2991 RMK AO2 T03310125
KDLO 271955Z AUTO 29003KT 10SM CLR 33/11 A2992 RMK AO2 T03300113
KDLO 271935Z AUTO 36005KT 10SM CLR 32/11 A2993 RMK AO2 T03210106
KDLO 271915Z AUTO 30003KT 10SM CLR 32/11 A2993 RMK AO2 T03170113
KDLO 271855Z AUTO 00000KT 10SM CLR 31/12 A2994 RMK AO2 T03070124
KDLO 271835Z AUTO 34004KT 10SM CLR 30/13 A2995 RMK AO2 T03010129
KDLO 271815Z AUTO 00000KT 10SM CLR 29/13 A2995 RMK AO2 T02900129
KDLO 271755Z AUTO 22004KT 10SM CLR 29/13 A2995 RMK AO2 T02880128 10288 20178
KDLO 271735Z AUTO 26003KT 10SM CLR 28/14 A2996 RMK AO2 T02790138
KDLO 271715Z AUTO 00000KT 10SM CLR 27/14 A2996 RMK AO2 T02680135
KDLO 271655Z AUTO 20003KT 10SM CLR 26/14 A2996 RMK AO2 T02630139
KDLO 271635Z AUTO 00000KT 10SM CLR 26/13 A2996 RMK AO2 T02560133
KDLO 271615Z AUTO 23003KT 10SM CLR 25/12 A2997 RMK AO2 T02530121
KDLO 271555Z AUTO 00000KT 10SM CLR 25/11 A2997 RMK AO2 T02480105
KDLO 271535Z AUTO 00000KT 10SM CLR 24/11 A2996 RMK AO2 T02380110
KDLO 271515Z AUTO 24003KT 10SM CLR 23/12 A2996 RMK AO2 T02320115
KDLO 271455Z AUTO 24003KT 10SM CLR 22/14 A2995 RMK AO2 T02240139
KDLO 271435Z AUTO 21003KT 7SM CLR 22/16 A2995 RMK AO2 T02160160
KDLO 271415Z AUTO 13003KT 10SM CLR 20/16 A2994 RMK AO2 T02010156
KDLO 271355Z AUTO 00000KT 10SM CLR 19/15 A2993 RMK AO2 T01890151
KDLO 271335Z AUTO 00000KT 10SM CLR 18/15 A2993 RMK AO2 T01830145
KDLO 271315Z AUTO 00000KT 10SM CLR 18/14 A2993 RMK AO2 T01780140
KDLO 271255Z AUTO 00000KT 10SM CLR 18/14 A2992 RMK AO2 T01840143
KDLO 271235Z AUTO 00000KT 10SM CLR 19/15 A2992 RMK AO2 T01890149
KDLO 271215Z AUTO 00000KT 10SM CLR 19/14 A2992 RMK AO2 T01860141
KDLO 271155Z AUTO 00000KT 10SM CLR 20/15 A2991 RMK AO2 T01990145 10243 20187
KDLO 271135Z AUTO 00000KT 10SM CLR 20/16 A2991 RMK AO2 T01950155
KDLO 271115Z AUTO 18004KT 10SM CLR 19/16 A2991 RMK AO2 T01890158
KDLO 271055Z AUTO 13003KT 10SM CLR 19/16 A2990 RMK AO2 T01930155
KDLO 271035Z AUTO 00000KT 10SM CLR 20/16 A2990 RMK AO2 T01970158
KDLO 271015Z AUTO 00000KT 10SM CLR 20/16 A2990 RMK AO2 T01950156
KDLO 270955Z AUTO 10003KT 10SM CLR 20/16 A2990 RMK AO2 T01970156
KDLO 270935Z AUTO 14003KT 10SM CLR 20/16 A2989 RMK AO2 T02000161
KDLO 270915Z AUTO 12003KT 10SM CLR 20/17 A2989 RMK AO2 T02040165
KDLO 270855Z AUTO 00000KT 10SM CLR 22/17 A2990 RMK AO2 T02150167
KDLO 270835Z AUTO 15003KT 10SM CLR 21/16 A2990 RMK AO2 T02140161
KDLO 270815Z AUTO 00000KT 10SM CLR 23/17 A2991 RMK AO2 T02280167
KDLO 270755Z AUTO 00000KT 10SM CLR 24/17 A2991 RMK AO2 T02370165 403220215
KDLO 270735Z AUTO 00000KT 10SM CLR 23/17 A2990 RMK AO2 T02330170
KDLO 270715Z AUTO 00000KT 10SM CLR 24/17 A2991 RMK AO2 T02350170
KDLO 270655Z AUTO 00000KT 10SM CLR 24/17 A2991 RMK AO2 T02350170
KDLO 270635Z AUTO 00000KT 10SM CLR 24/18 A2991 RMK AO2 T02350175
KDLO 270615Z AUTO 00000KT 10SM CLR 24/18 A2991 RMK AO2 T02360180
KDLO 270555Z AUTO 15003KT 10SM CLR 24/18 A2990 RMK AO2 T02440177 10260 20241
KDLO 270535Z AUTO 00000KT 10SM CLR 24/18 A2991 RMK AO2 T02420177
KDLO 270515Z AUTO 17003KT 10SM CLR 24/17 A2990 RMK AO2 T02430174
KDLO 270455Z AUTO 17003KT 10SM CLR 24/18 A2990 RMK AO2 T02430182
KDLO 270435Z AUTO 14003KT 10SM CLR 24/19 A2990 RMK AO2 T02430185
KDLO 270415Z AUTO 12003KT 10SM CLR 25/17 A2989 RMK AO2 T02460173
KDLO 270355Z AUTO 17003KT 10SM CLR 25/17 A2989 RMK AO2 T02470173
KDLO 270335Z AUTO 00000KT 10SM CLR 25/17 A2988 RMK AO2 T02470174
KDLO 270315Z AUTO 00000KT 10SM CLR 25/18 A2989 RMK AO2 T02470177
KDLO 270255Z AUTO 22003KT 10SM CLR 25/17 A2988 RMK AO2 T02490171
KDLO 270235Z AUTO 00000KT 10SM SCT090 25/17 A2988 RMK AO2 T02490172
KDLO 270215Z AUTO 00000KT 10SM BKN090 BKN110 25/18 A2988 RMK AO2 T02500177
KDLO 270155Z AUTO 00000KT 10SM OVC090 25/18 A2987 RMK AO2 T02510175
KDLO 270135Z AUTO 24004KT 10SM OVC100 26/17 A2987 RMK AO2 T02560171
KDLO 270115Z AUTO 23004KT 10SM OVC100 26/16 A2987 RMK AO2 T02560164
KDLO 270055Z AUTO 21003KT 10SM BKN100 BKN120 26/15 A2987 RMK AO2 T02560150
KDLO 270035Z AUTO 20004KT 10SM BKN120 26/14 A2987 RMK AO2 T02570139
KDLO 270015Z AUTO 22003KT 10SM SCT120 26/14 A2987 RMK AO2 T02570142
KDLO 262355Z AUTO 21003KT 10SM SCT090 BKN120 26/14 A2987 RMK AO2 T02600136 10322 20256